Kezdőlap
METAR-TAF:

METAR-TAF

Repülőterek :

Elsenborn

Bütgenbach, Belgium

földrajzi szélesség: 50-28N, földrajzi hosszúság: 006-11E, magasság: 564 m

Jelenlegi meteorológiai megfigyelések

A jelentés 39 perccel ezelõtt készült, 12:55 UTC
Délnyugati szél 9 kt
Hőmérséklet 4°C
Páratartalom 81%
Légköri nyomás 1003 hPa
Látótávolság 10 km, vagy több

METAR: EBLB 151255Z AUTO 23009KT 9999 FEW021/// BKN220/// 04/01 Q1003 BLU

Idő: 14:34 (13:34 UTC)


TAF: hiányzik

Meteorológiai megfigyelések és előrejelzések több, mint 4000 repülőtéren (METAR és TAF jelentéseket).

A térképen piros és sárga pontok jelzik az elérhető meteorológiai állomásokat.

Mozgassa az egeret a pont fölött, hogy megjelenjen az állomás neve.

Azután kattintson az időjárási megfigyelések és előrejelzések megtekintéséhez.

A térkép megváltoztatása: kattintson a fekete keresztel jelölt zöld gombra ráközelítéshez, a vonallal jelölt zöld gombra távolításhoz, vagy a zöld nyilakra a szomszédos térképek eléréséhez.


METAR-TAF: